createdAt,value
2017-09-14T00:01:00.351Z,987.6
2017-09-14T00:02:02.764Z,987.7
2017-09-14T00:03:05.150Z,987.6
2017-09-14T00:04:07.539Z,987.7
2017-09-14T00:05:09.930Z,987.7
2017-09-14T00:06:12.319Z,987.7
2017-09-14T00:07:15.053Z,987.7
2017-09-14T00:08:17.445Z,987.7
2017-09-14T00:09:19.836Z,987.7
2017-09-14T00:10:22.227Z,987.7
2017-09-14T00:11:24.623Z,987.8
2017-09-14T00:12:27.009Z,987.8
2017-09-14T00:13:29.401Z,987.8
2017-09-14T00:14:31.792Z,987.8
2017-09-14T00:15:34.185Z,987.8
2017-09-14T00:16:36.593Z,987.8
2017-09-14T00:17:38.997Z,987.8
2017-09-14T00:18:41.388Z,987.7
2017-09-14T00:19:43.778Z,987.8
2017-09-14T00:20:46.171Z,987.9
2017-09-14T00:21:48.562Z,987.8
2017-09-14T00:22:50.961Z,987.7
2017-09-14T00:23:53.346Z,987.8
2017-09-14T00:24:55.745Z,987.8
2017-09-14T00:25:58.132Z,987.9
2017-09-14T00:27:00.531Z,987.8
2017-09-14T00:28:02.929Z,987.8
2017-09-14T00:29:05.316Z,987.9
2017-09-14T00:30:07.706Z,987.8
2017-09-14T00:31:10.099Z,987.9
2017-09-14T00:32:12.826Z,987.9
2017-09-14T00:33:15.212Z,987.8
2017-09-14T00:34:17.595Z,987.8
2017-09-14T00:35:19.982Z,987.8
2017-09-14T00:36:22.383Z,987.9
2017-09-14T00:37:24.774Z,987.8
2017-09-14T00:38:27.170Z,987.9
2017-09-14T00:39:29.897Z,987.8
2017-09-14T00:40:32.293Z,987.8
2017-09-14T00:41:34.680Z,987.9
2017-09-14T00:42:37.068Z,987.8
2017-09-14T00:43:39.471Z,987.8
2017-09-14T00:44:41.863Z,987.8
2017-09-14T00:45:44.242Z,987.8
2017-09-14T00:46:46.639Z,987.7
2017-09-14T00:47:49.032Z,987.8
2017-09-14T00:48:51.430Z,987.7
2017-09-14T00:49:53.824Z,987.8
2017-09-14T00:50:56.555Z,987.8
2017-09-14T00:51:58.947Z,987.8
2017-09-14T00:53:01.683Z,987.8
2017-09-14T00:54:04.071Z,987.8
2017-09-14T00:55:06.463Z,987.8
2017-09-14T00:56:08.854Z,987.8
2017-09-14T00:57:11.245Z,987.8
2017-09-14T00:58:13.648Z,987.7
2017-09-14T00:59:16.044Z,987.8
2017-09-14T01:00:18.429Z,987.7
2017-09-14T01:01:20.815Z,987.7
2017-09-14T01:02:23.209Z,987.7
2017-09-14T01:03:25.610Z,987.7
2017-09-14T01:04:28.000Z,987.7
2017-09-14T01:05:30.386Z,987.7
2017-09-14T01:06:32.772Z,987.7
2017-09-14T01:07:35.173Z,987.7
2017-09-14T01:08:37.561Z,987.7
2017-09-14T01:09:39.959Z,987.7
2017-09-14T01:10:42.345Z,987.7
2017-09-14T01:11:44.734Z,987.7
2017-09-14T01:12:47.124Z,987.7
2017-09-14T01:13:49.533Z,987.7
2017-09-14T01:14:51.920Z,987.7
2017-09-14T01:15:54.316Z,987.7
2017-09-14T01:16:56.703Z,987.7
2017-09-14T01:17:59.106Z,987.8
2017-09-14T01:19:01.492Z,987.7
2017-09-14T01:20:03.879Z,987.7
2017-09-14T01:21:06.272Z,987.6
2017-09-14T01:22:08.665Z,987.6
2017-09-14T01:23:11.049Z,987.7
2017-09-14T01:24:13.444Z,987.6
2017-09-14T01:25:15.830Z,987.6
2017-09-14T01:26:18.224Z,987.6
2017-09-14T01:27:20.615Z,987.5
2017-09-14T01:28:23.344Z,987.7
2017-09-14T01:29:25.732Z,987.6
2017-09-14T01:30:28.127Z,987.7
2017-09-14T01:31:30.517Z,987.7
2017-09-14T01:32:32.917Z,987.7
2017-09-14T01:33:35.300Z,987.7
2017-09-14T01:34:38.035Z,987.8
2017-09-14T01:35:40.423Z,987.8
2017-09-14T01:36:42.817Z,987.9
2017-09-14T01:37:45.204Z,987.8
2017-09-14T01:38:47.597Z,987.8
2017-09-14T01:39:49.980Z,987.7
2017-09-14T01:40:52.363Z,987.8
2017-09-14T01:41:54.779Z,987.9
2017-09-14T01:42:57.156Z,987.9
2017-09-14T01:43:59.551Z,987.8
2017-09-14T01:45:01.942Z,987.8
2017-09-14T01:46:04.333Z,987.9
2017-09-14T01:47:06.727Z,987.8
2017-09-14T01:48:09.124Z,987.8
2017-09-14T01:49:11.544Z,987.9
2017-09-14T01:50:13.906Z,987.8
2017-09-14T01:51:16.291Z,987.9
2017-09-14T01:52:18.687Z,987.9
2017-09-14T01:53:21.078Z,987.9
2017-09-14T01:54:23.469Z,987.8
2017-09-14T01:55:25.851Z,987.9
2017-09-14T01:56:28.589Z,987.8
2017-09-14T01:57:30.982Z,987.8
2017-09-14T01:58:33.374Z,987.8
2017-09-14T01:59:35.764Z,987.8
2017-09-14T02:00:38.149Z,987.8
2017-09-14T02:01:40.540Z,987.7
2017-09-14T02:02:42.941Z,987.8
2017-09-14T02:03:45.332Z,987.7
2017-09-14T02:04:47.721Z,987.8
2017-09-14T02:05:50.106Z,987.8
2017-09-14T02:06:52.504Z,987.8
2017-09-14T02:07:54.890Z,987.8
2017-09-14T02:08:57.285Z,987.7
2017-09-14T02:09:59.675Z,987.8
2017-09-14T02:11:02.066Z,987.8
2017-09-14T02:12:04.462Z,987.8
2017-09-14T02:13:06.853Z,987.8
2017-09-14T02:14:09.250Z,987.8
2017-09-14T02:15:11.983Z,987.7
2017-09-14T02:16:14.363Z,987.7
2017-09-14T02:17:16.753Z,987.7
2017-09-14T02:18:19.142Z,987.7
2017-09-14T02:19:21.536Z,987.8
2017-09-14T02:20:23.924Z,987.7
2017-09-14T02:21:26.308Z,987.7
2017-09-14T02:22:28.700Z,987.7
2017-09-14T02:23:31.096Z,987.7
2017-09-14T02:24:33.482Z,987.7
2017-09-14T02:25:35.874Z,987.8
2017-09-14T02:26:38.266Z,987.8
2017-09-14T02:27:40.987Z,987.7
2017-09-14T02:28:43.723Z,987.8
2017-09-14T02:29:46.113Z,987.8
2017-09-14T02:30:48.494Z,987.8
2017-09-14T02:31:50.889Z,987.8
2017-09-14T02:32:53.281Z,987.8
2017-09-14T02:33:55.672Z,987.9
2017-09-14T02:34:58.059Z,987.8
2017-09-14T02:36:00.445Z,987.8
2017-09-14T02:37:02.831Z,987.8
2017-09-14T02:38:05.233Z,987.8
2017-09-14T02:39:07.614Z,987.8
2017-09-14T02:40:10.015Z,987.7
2017-09-14T02:41:12.408Z,987.7
2017-09-14T02:42:14.797Z,987.7
2017-09-14T02:43:17.190Z,987.7
2017-09-14T02:44:19.580Z,987.7
2017-09-14T02:45:21.976Z,987.7
2017-09-14T02:46:24.368Z,987.8
2017-09-14T02:47:26.753Z,987.8
2017-09-14T02:48:29.158Z,987.7
2017-09-14T02:49:31.552Z,987.7
2017-09-14T02:50:33.938Z,987.8
2017-09-14T02:51:36.325Z,987.7
2017-09-14T02:52:38.709Z,987.7
2017-09-14T02:53:41.097Z,987.7
2017-09-14T02:54:43.500Z,987.8
2017-09-14T02:55:45.891Z,987.8
2017-09-14T02:56:48.272Z,987.8
2017-09-14T02:57:50.660Z,987.8
2017-09-14T02:58:53.050Z,987.7
2017-09-14T02:59:55.448Z,987.7
2017-09-14T03:00:57.842Z,987.7
2017-09-14T03:02:00.224Z,987.7
2017-09-14T03:03:02.614Z,987.7
2017-09-14T03:04:05.015Z,987.7
2017-09-14T03:05:07.400Z,987.7
2017-09-14T03:06:09.788Z,987.7
2017-09-14T03:07:12.181Z,987.7
2017-09-14T03:08:14.907Z,987.7
2017-09-14T03:09:17.290Z,987.8
2017-09-14T03:10:19.686Z,987.8
2017-09-14T03:11:22.082Z,987.8
2017-09-14T03:12:24.469Z,987.8
2017-09-14T03:13:26.851Z,987.8
2017-09-14T03:14:29.245Z,987.7
2017-09-14T03:15:31.630Z,987.7
2017-09-14T03:16:34.361Z,987.8
2017-09-14T03:17:36.778Z,987.7
2017-09-14T03:18:39.172Z,987.7
2017-09-14T03:19:41.561Z,987.7
2017-09-14T03:20:43.959Z,987.7
2017-09-14T03:21:46.344Z,987.7
2017-09-14T03:22:48.732Z,987.7
2017-09-14T03:23:51.119Z,987.7
2017-09-14T03:24:53.513Z,987.8
2017-09-14T03:25:55.907Z,987.7
2017-09-14T03:26:58.296Z,987.7
2017-09-14T03:28:00.669Z,987.7
2017-09-14T03:29:03.068Z,987.7
2017-09-14T03:30:05.461Z,987.7
2017-09-14T03:31:07.849Z,987.6
2017-09-14T03:32:10.240Z,987.7
2017-09-14T03:33:12.629Z,987.7
2017-09-14T03:34:15.021Z,987.7
2017-09-14T03:35:17.419Z,987.7
2017-09-14T03:36:19.799Z,987.7
2017-09-14T03:37:22.189Z,987.8
2017-09-14T03:38:24.578Z,987.7
2017-09-14T03:39:26.961Z,987.7
2017-09-14T03:40:29.351Z,987.8
2017-09-14T03:41:31.745Z,987.8
2017-09-14T03:42:34.140Z,987.8
2017-09-14T03:43:36.527Z,987.8
2017-09-14T03:44:39.248Z,987.8
2017-09-14T03:45:41.641Z,987.8
2017-09-14T03:46:44.033Z,987.8
2017-09-14T03:47:46.419Z,987.8
2017-09-14T03:48:48.813Z,987.8
2017-09-14T03:49:51.198Z,987.8
2017-09-14T03:50:53.591Z,987.9
2017-09-14T03:51:55.987Z,987.9
2017-09-14T03:52:58.372Z,987.9
2017-09-14T03:54:00.762Z,987.9
2017-09-14T03:55:03.156Z,988
2017-09-14T03:56:05.549Z,987.9
2017-09-14T03:57:07.944Z,987.9
2017-09-14T03:58:10.330Z,988
2017-09-14T03:59:12.714Z,987.9
2017-09-14T04:00:15.105Z,988
2017-09-14T04:01:17.499Z,988
2017-09-14T04:02:19.882Z,988
2017-09-14T04:03:22.274Z,988
2017-09-14T04:04:24.662Z,988
2017-09-14T04:05:27.053Z,988
2017-09-14T04:06:29.448Z,988.1
2017-09-14T04:07:31.839Z,988
2017-09-14T04:08:34.225Z,988
2017-09-14T04:09:36.606Z,988
2017-09-14T04:10:38.997Z,988
2017-09-14T04:11:41.732Z,988
2017-09-14T04:12:44.112Z,988
2017-09-14T04:13:46.504Z,988
2017-09-14T04:14:48.898Z,988
2017-09-14T04:15:51.289Z,987.9
2017-09-14T04:16:53.679Z,988
2017-09-14T04:17:56.074Z,987.9
2017-09-14T04:18:58.453Z,988
2017-09-14T04:20:00.858Z,988
2017-09-14T04:21:03.248Z,988
2017-09-14T04:22:05.628Z,988
2017-09-14T04:23:08.361Z,988
2017-09-14T04:24:10.745Z,988
2017-09-14T04:25:13.133Z,987.9
2017-09-14T04:26:15.531Z,988
2017-09-14T04:27:17.912Z,988
2017-09-14T04:28:20.643Z,988
2017-09-14T04:29:23.030Z,988
2017-09-14T04:30:25.422Z,988.1
2017-09-14T04:31:27.824Z,988.1
2017-09-14T04:32:30.219Z,988.1
2017-09-14T04:33:32.606Z,988.1
2017-09-14T04:34:35.002Z,988.1
2017-09-14T04:35:37.396Z,988
2017-09-14T04:36:39.780Z,988.1
2017-09-14T04:37:42.517Z,988
2017-09-14T04:38:44.908Z,988.1
2017-09-14T04:39:47.293Z,988.1
2017-09-14T04:40:49.682Z,988
2017-09-14T04:41:52.082Z,988.1
2017-09-14T04:42:54.473Z,988
2017-09-14T04:43:56.855Z,988.1
2017-09-14T04:44:59.247Z,988.1
2017-09-14T04:46:01.637Z,988.1
2017-09-14T04:47:04.030Z,988.1
2017-09-14T04:48:06.418Z,988.1
2017-09-14T04:49:08.806Z,988.1
2017-09-14T04:50:11.192Z,988
2017-09-14T04:51:13.599Z,988
2017-09-14T04:52:16.320Z,988.1
2017-09-14T04:53:18.728Z,987.9
2017-09-14T04:54:21.119Z,988
2017-09-14T04:55:23.506Z,988
2017-09-14T04:56:25.905Z,988
2017-09-14T04:57:28.631Z,988
2017-09-14T04:58:31.020Z,988
2017-09-14T04:59:33.424Z,988
2017-09-14T05:00:35.814Z,988
2017-09-14T05:01:38.217Z,988
2017-09-14T05:02:40.942Z,987.9
2017-09-14T05:03:43.333Z,988
2017-09-14T05:04:45.720Z,988
2017-09-14T05:05:48.124Z,988
2017-09-14T05:06:50.508Z,988
2017-09-14T05:07:52.955Z,988
2017-09-14T05:08:55.337Z,988
2017-09-14T05:09:57.731Z,988
2017-09-14T05:11:00.123Z,988.1
2017-09-14T05:12:02.512Z,988
2017-09-14T05:13:04.914Z,988.1
2017-09-14T05:14:07.307Z,988.1
2017-09-14T05:15:09.701Z,988.1
2017-09-14T05:16:12.099Z,988.1
2017-09-14T05:17:14.479Z,988
2017-09-14T05:18:16.872Z,988
2017-09-14T05:19:19.260Z,988.1
2017-09-14T05:20:21.650Z,988
2017-09-14T05:21:24.046Z,988
2017-09-14T05:22:26.780Z,988
2017-09-14T05:23:29.173Z,988.1
2017-09-14T05:24:31.899Z,988
2017-09-14T05:25:34.295Z,988.1
2017-09-14T05:26:36.674Z,988
2017-09-14T05:27:39.066Z,988
2017-09-14T05:28:41.466Z,988.1
2017-09-14T05:29:43.863Z,988.1
2017-09-14T05:30:46.252Z,988
2017-09-14T05:31:48.649Z,988
2017-09-14T05:32:51.037Z,988.1
2017-09-14T05:33:53.435Z,988
2017-09-14T05:34:55.826Z,988
2017-09-14T05:35:58.212Z,988.1
2017-09-14T05:37:00.610Z,988.1
2017-09-14T05:38:03.001Z,988
2017-09-14T05:39:05.390Z,988
2017-09-14T05:40:07.811Z,988
2017-09-14T05:41:10.175Z,988.1
2017-09-14T05:42:12.572Z,988.1
2017-09-14T05:43:14.963Z,988
2017-09-14T05:44:17.373Z,988.1
2017-09-14T05:45:19.819Z,988
2017-09-14T05:46:22.261Z,988.1
2017-09-14T05:47:24.721Z,988
2017-09-14T05:48:29.395Z,988
2017-09-14T05:49:39.530Z,988
2017-09-14T05:50:41.989Z,988
2017-09-14T05:51:44.442Z,988
2017-09-14T05:52:46.907Z,988
2017-09-14T05:53:50.154Z,988
2017-09-14T05:54:52.603Z,988
2017-09-14T05:55:55.042Z,988
2017-09-14T05:56:57.490Z,988
2017-09-14T05:57:59.949Z,988
2017-09-14T05:59:02.386Z,988
2017-09-14T06:00:04.833Z,988
2017-09-14T06:01:07.641Z,988
2017-09-14T06:02:10.084Z,988
2017-09-14T06:03:12.534Z,988
2017-09-14T06:04:14.986Z,988
2017-09-14T06:05:17.424Z,988
2017-09-14T06:06:19.967Z,988
2017-09-14T06:07:22.914Z,988
2017-09-14T06:08:25.371Z,988
2017-09-14T06:09:28.155Z,988
2017-09-14T06:10:30.600Z,988
2017-09-14T06:11:33.050Z,988
2017-09-14T06:12:35.499Z,987.8
2017-09-14T06:13:38.320Z,987.9
2017-09-14T06:14:40.843Z,988
2017-09-14T06:15:43.278Z,988
2017-09-14T06:16:45.743Z,988
2017-09-14T06:17:48.198Z,988
2017-09-14T06:18:50.640Z,988.1
2017-09-14T06:19:53.318Z,988
2017-09-14T06:20:58.702Z,987.9
2017-09-14T06:22:01.151Z,988
2017-09-14T06:23:03.607Z,988.1
2017-09-14T06:24:06.037Z,988.1
2017-09-14T06:25:08.483Z,988.1
2017-09-14T06:26:10.937Z,988.1
2017-09-14T06:27:13.379Z,988.1
2017-09-14T06:28:15.827Z,988
2017-09-14T06:29:18.279Z,988
2017-09-14T06:30:20.721Z,988
2017-09-14T06:31:23.174Z,988
2017-09-14T06:32:25.630Z,987.9
2017-09-14T06:33:28.077Z,988
2017-09-14T06:34:30.525Z,988.1
2017-09-14T06:35:32.981Z,988
2017-09-14T06:36:35.799Z,987.9
2017-09-14T06:37:38.247Z,988
2017-09-14T06:38:40.691Z,988
2017-09-14T06:39:43.218Z,988
2017-09-14T06:40:46.015Z,987.9
2017-09-14T06:41:48.473Z,988
2017-09-14T06:42:50.906Z,988
2017-09-14T06:43:53.358Z,987.9
2017-09-14T06:44:55.807Z,987.9
2017-09-14T06:45:58.247Z,987.9
2017-09-14T06:47:00.691Z,987.8
2017-09-14T06:48:03.129Z,987.9
2017-09-14T06:49:05.577Z,988
2017-09-14T06:50:08.031Z,987.9
2017-09-14T06:51:10.821Z,987.9
2017-09-14T06:52:13.619Z,987.9
2017-09-14T06:53:16.063Z,987.9
2017-09-14T06:54:18.850Z,988
2017-09-14T06:55:21.296Z,987.9
2017-09-14T06:56:23.750Z,987.9
2017-09-14T06:57:26.185Z,987.8
2017-09-14T06:58:28.646Z,987.8
2017-09-14T06:59:31.101Z,987.8
2017-09-14T07:00:33.551Z,987.9
2017-09-14T07:01:36.359Z,987.8
2017-09-14T07:02:38.804Z,987.9
2017-09-14T07:03:41.252Z,987.9
2017-09-14T07:04:43.712Z,987.8
2017-09-14T07:05:46.164Z,987.9
2017-09-14T07:06:48.597Z,988
2017-09-14T07:07:51.045Z,988
2017-09-14T07:08:53.508Z,987.9
2017-09-14T07:09:55.952Z,987.9
2017-09-14T07:10:58.408Z,987.9
2017-09-14T07:12:00.855Z,988
2017-09-14T07:13:03.297Z,988
2017-09-14T07:14:05.750Z,988
2017-09-14T07:15:08.545Z,988.1
2017-09-14T07:16:10.985Z,988.1
2017-09-14T07:17:13.436Z,988.2
2017-09-14T07:18:15.880Z,988.2
2017-09-14T07:19:18.321Z,988.1
2017-09-14T07:20:20.768Z,988.1
2017-09-14T07:21:23.548Z,988.2
2017-09-14T07:22:25.989Z,988.1
2017-09-14T07:23:28.440Z,988.2
2017-09-14T07:24:30.886Z,988.3
2017-09-14T07:25:33.330Z,988.3
2017-09-14T07:26:35.782Z,988.4
2017-09-14T07:27:38.230Z,988.3
2017-09-14T07:28:41.025Z,988.5
2017-09-14T07:29:43.473Z,988.4
2017-09-14T07:30:45.912Z,988.5
2017-09-14T07:31:48.358Z,988.6
2017-09-14T07:32:50.803Z,988.6
2017-09-14T07:33:53.244Z,988.5
2017-09-14T07:34:55.690Z,988.5
2017-09-14T07:35:58.132Z,988.4
2017-09-14T07:37:00.580Z,988.5
2017-09-14T07:38:03.028Z,988.5
2017-09-14T07:39:05.474Z,988.4
2017-09-14T07:40:07.953Z,988.5
2017-09-14T07:41:10.376Z,988.5
2017-09-14T07:42:12.813Z,988.5
2017-09-14T07:43:15.264Z,988.6
2017-09-14T07:44:17.712Z,988.6
2017-09-14T07:45:20.169Z,988.5
2017-09-14T07:46:22.623Z,988.6
2017-09-14T07:47:25.069Z,988.7
2017-09-14T07:48:27.517Z,988.8
2017-09-14T07:49:30.317Z,988.9
2017-09-14T07:50:33.105Z,988.7
2017-09-14T07:51:35.548Z,988.9
2017-09-14T07:52:37.991Z,988.8
2017-09-14T07:53:40.438Z,988.8
2017-09-14T07:54:42.893Z,988.8
2017-09-14T07:55:45.691Z,988.8
2017-09-14T07:56:48.135Z,988.7
2017-09-14T07:57:50.582Z,988.7
2017-09-14T07:58:53.376Z,988.7
2017-09-14T07:59:55.826Z,988.8
2017-09-14T08:00:58.276Z,988.9
2017-09-14T08:02:00.725Z,989.1
2017-09-14T08:03:03.507Z,988.9
2017-09-14T08:04:06.369Z,989
2017-09-14T08:05:08.836Z,988.9
2017-09-14T08:06:11.276Z,989
2017-09-14T08:07:13.725Z,989.1
2017-09-14T08:08:16.862Z,989
2017-09-14T08:09:19.311Z,989.1
2017-09-14T08:10:21.759Z,989.2
2017-09-14T08:11:24.207Z,989.1
2017-09-14T08:12:26.652Z,988.9
2017-09-14T08:13:29.103Z,989
2017-09-14T08:14:31.546Z,988.9
2017-09-14T08:15:33.999Z,988.8
2017-09-14T08:16:36.442Z,988.9
2017-09-14T08:17:38.951Z,988.9
2017-09-14T08:18:41.398Z,988.9
2017-09-14T08:19:43.850Z,988.8
2017-09-14T08:20:46.291Z,988.9
2017-09-14T08:21:48.744Z,989
2017-09-14T08:22:51.541Z,989
2017-09-14T08:23:53.990Z,988.9
2017-09-14T08:24:56.443Z,988.9
2017-09-14T08:25:59.234Z,988.9
2017-09-14T08:27:01.676Z,988.9
2017-09-14T08:28:04.135Z,988.8
2017-09-14T08:29:06.575Z,988.9
2017-09-14T08:30:09.031Z,989.1
2017-09-14T08:31:11.482Z,988.9
2017-09-14T08:32:13.928Z,989
2017-09-14T08:33:16.379Z,988.9
2017-09-14T08:34:18.829Z,989.1
2017-09-14T08:35:21.634Z,989
2017-09-14T08:36:24.092Z,989
2017-09-14T08:37:26.534Z,989
2017-09-14T08:38:28.984Z,989
2017-09-14T08:39:31.437Z,989.1
2017-09-14T08:40:33.883Z,989
2017-09-14T08:41:36.334Z,988.7
2017-09-14T08:42:39.202Z,988.9
2017-09-14T08:43:41.651Z,988.9
2017-09-14T08:44:44.105Z,988.8
2017-09-14T08:45:46.643Z,989
2017-09-14T08:46:49.093Z,988.8
2017-09-14T08:47:51.547Z,989
2017-09-14T08:48:54.071Z,988.9
2017-09-14T08:49:56.518Z,988.9
2017-09-14T08:50:58.976Z,989
2017-09-14T08:52:01.433Z,988.9
2017-09-14T08:53:03.887Z,989
2017-09-14T08:54:06.346Z,988.9
2017-09-14T08:55:08.802Z,988.9
2017-09-14T08:56:11.248Z,989
2017-09-14T08:57:13.709Z,988.9
2017-09-14T08:58:16.164Z,989.1
2017-09-14T08:59:18.958Z,989
2017-09-14T09:00:21.410Z,989
2017-09-14T09:01:23.863Z,988.9
2017-09-14T09:02:26.318Z,988.9
2017-09-14T09:03:28.786Z,989
2017-09-14T09:04:31.567Z,989
2017-09-14T09:05:34.024Z,988.9
2017-09-14T09:06:36.472Z,989
2017-09-14T09:07:38.924Z,989
2017-09-14T09:08:41.377Z,988.9
2017-09-14T09:09:43.826Z,988.9
2017-09-14T09:10:46.639Z,988.9
2017-09-14T09:11:49.439Z,988.8
2017-09-14T09:12:51.900Z,988.9
2017-09-14T09:13:54.361Z,988.9
2017-09-14T09:14:56.818Z,988.9
2017-09-14T09:15:59.272Z,988.9
2017-09-14T09:17:02.076Z,989
2017-09-14T09:18:04.521Z,989
2017-09-14T09:19:06.997Z,989
2017-09-14T09:20:09.445Z,989
2017-09-14T09:21:11.903Z,988.9
2017-09-14T09:22:14.375Z,989
2017-09-14T09:23:16.820Z,989
2017-09-14T09:24:19.277Z,989.1
2017-09-14T09:25:21.734Z,989
2017-09-14T09:26:24.196Z,989.1
2017-09-14T09:27:26.664Z,989
2017-09-14T09:28:29.121Z,989.1
2017-09-14T09:29:31.577Z,989.2
2017-09-14T09:30:34.027Z,989.1
2017-09-14T09:31:36.485Z,989
2017-09-14T09:32:38.960Z,989.1
2017-09-14T09:33:41.413Z,989.2
2017-09-14T09:34:43.883Z,989
2017-09-14T09:35:46.346Z,989
2017-09-14T09:36:48.792Z,989.1
2017-09-14T09:37:51.251Z,989
2017-09-14T09:38:53.714Z,989
2017-09-14T09:39:56.171Z,989
2017-09-14T09:40:58.628Z,989
2017-09-14T09:42:01.072Z,989
2017-09-14T09:43:03.529Z,989
2017-09-14T09:44:05.992Z,988.9
2017-09-14T09:45:08.784Z,988.9
2017-09-14T09:46:11.232Z,989
2017-09-14T09:47:13.688Z,989
2017-09-14T09:48:16.137Z,988.9
2017-09-14T09:49:18.598Z,989
2017-09-14T09:50:21.048Z,989
2017-09-14T09:51:23.501Z,989
2017-09-14T09:52:25.967Z,989
2017-09-14T09:53:28.422Z,988.9
2017-09-14T09:54:30.880Z,988.9
2017-09-14T09:55:33.333Z,989
2017-09-14T09:56:35.789Z,989
2017-09-14T09:57:38.250Z,989.1
2017-09-14T09:58:40.704Z,989
2017-09-14T09:59:43.156Z,988.9
2017-09-14T10:00:45.614Z,988.8
2017-09-14T10:01:48.061Z,989.1
2017-09-14T10:02:50.525Z,989.1
2017-09-14T10:03:52.968Z,988.9
2017-09-14T10:04:55.428Z,989
2017-09-14T10:05:57.888Z,989
2017-09-14T10:07:00.348Z,988.9
2017-09-14T10:08:03.128Z,989
2017-09-14T10:09:05.957Z,989
2017-09-14T10:10:08.412Z,989
2017-09-14T10:11:10.864Z,989
2017-09-14T10:12:13.320Z,989.1
2017-09-14T10:13:15.769Z,989.1
2017-09-14T10:14:18.222Z,989.1
2017-09-14T10:15:20.686Z,989.1
2017-09-14T10:16:23.139Z,989.1
2017-09-14T10:17:25.603Z,989
2017-09-14T10:18:28.057Z,989.1
2017-09-14T10:19:30.842Z,989
2017-09-14T10:20:33.301Z,989.1
2017-09-14T10:21:35.758Z,989.1
2017-09-14T10:22:38.208Z,989.1
2017-09-14T10:23:40.665Z,989.1
2017-09-14T10:24:43.122Z,989.1
2017-09-14T10:25:45.568Z,989.2
2017-09-14T10:26:48.036Z,989.2
2017-09-14T10:27:50.853Z,989.3
2017-09-14T10:28:53.650Z,989.2
2017-09-14T10:29:56.103Z,989.3
2017-09-14T10:30:58.562Z,989.3
2017-09-14T10:32:01.018Z,989.3
2017-09-14T10:33:03.820Z,989.3
2017-09-14T10:34:06.267Z,989.1
2017-09-14T10:35:08.728Z,989.2
2017-09-14T10:36:11.191Z,989.3
2017-09-14T10:37:13.647Z,989.3
2017-09-14T10:38:16.104Z,989.3
2017-09-14T10:39:18.560Z,989.3
2017-09-14T10:40:21.004Z,989.3
2017-09-14T10:41:23.468Z,989.3
2017-09-14T10:42:25.916Z,989.3
2017-09-14T10:43:28.372Z,989.2
2017-09-14T10:44:30.831Z,989.2
2017-09-14T10:45:33.277Z,989.1
2017-09-14T10:46:35.736Z,989.3
2017-09-14T10:47:38.186Z,989.3
2017-09-14T10:48:40.639Z,989.3
2017-09-14T10:49:43.090Z,989.3
2017-09-14T10:50:45.883Z,989.3
2017-09-14T10:51:48.350Z,989.3
2017-09-14T10:52:50.790Z,989.3
2017-09-14T10:53:53.245Z,989.3
2017-09-14T10:54:55.693Z,989.4
2017-09-14T10:55:58.150Z,989.3
2017-09-14T10:57:00.610Z,989.4
2017-09-14T10:58:03.083Z,989.3
2017-09-14T10:59:05.538Z,989.4
2017-09-14T11:00:08.000Z,989.4
2017-09-14T11:01:10.471Z,989.4
2017-09-14T11:02:12.947Z,989.4
2017-09-14T11:03:15.401Z,989.5
2017-09-14T11:04:17.857Z,989.4
2017-09-14T11:05:20.303Z,989.4
2017-09-14T11:06:22.754Z,989.5
2017-09-14T11:07:25.239Z,989.4
2017-09-14T11:08:27.684Z,989.4
2017-09-14T11:09:30.142Z,989.5
2017-09-14T11:10:32.604Z,989.4
2017-09-14T11:11:35.062Z,989.5
2017-09-14T11:12:37.519Z,989.4
2017-09-14T11:13:39.995Z,989.5
2017-09-14T11:14:42.434Z,989.4
2017-09-14T11:15:44.897Z,989.4
2017-09-14T11:16:47.355Z,989.3
2017-09-14T11:17:49.806Z,989.4
2017-09-14T11:18:52.275Z,989.4
2017-09-14T11:19:54.723Z,989.3
2017-09-14T11:20:57.203Z,989.3
2017-09-14T11:21:59.650Z,989.3
2017-09-14T11:23:02.100Z,989.3
2017-09-14T11:24:04.551Z,989.3
2017-09-14T11:25:07.018Z,989.2
2017-09-14T11:26:09.479Z,989.4
2017-09-14T11:27:11.949Z,989.3
2017-09-14T11:28:14.402Z,989.3
2017-09-14T11:29:16.868Z,989.3
2017-09-14T11:30:19.326Z,989.3
2017-09-14T11:31:22.131Z,989.5
2017-09-14T11:32:24.616Z,989.3
2017-09-14T11:33:27.070Z,989.5
2017-09-14T11:34:29.530Z,989.4
2017-09-14T11:35:31.997Z,989.4
2017-09-14T11:36:34.495Z,989.5
2017-09-14T11:37:36.959Z,989.5
2017-09-14T11:38:39.415Z,989.4
2017-09-14T11:39:41.927Z,989.4
2017-09-14T11:40:44.745Z,989.4
2017-09-14T11:41:47.245Z,989.4
2017-09-14T11:42:49.704Z,989.5
2017-09-14T11:43:52.213Z,989.5
2017-09-14T11:44:54.675Z,989.5
2017-09-14T11:45:57.130Z,989.5
2017-09-14T11:46:59.611Z,989.5
2017-09-14T11:48:02.068Z,989.6
2017-09-14T11:49:04.864Z,989.4
2017-09-14T11:50:07.332Z,989.5
2017-09-14T11:51:09.785Z,989.5
2017-09-14T11:52:12.232Z,989.5
2017-09-14T11:53:14.691Z,989.4
2017-09-14T11:54:17.146Z,989.3
2017-09-14T11:55:19.954Z,989.4
2017-09-14T11:56:22.780Z,989.3
2017-09-14T11:57:25.230Z,989.3
2017-09-14T11:58:27.690Z,989.3
2017-09-14T11:59:30.159Z,989.3
2017-09-14T12:00:32.608Z,989.3
2017-09-14T12:01:35.064Z,989.2
2017-09-14T12:02:37.523Z,989.3
2017-09-14T12:03:39.984Z,989.3
2017-09-14T12:04:42.433Z,989.3
2017-09-14T12:05:44.889Z,989.3
2017-09-14T12:06:47.347Z,989.3
2017-09-14T12:07:49.808Z,989.3
2017-09-14T12:08:52.253Z,989.4
2017-09-14T12:09:54.665Z,989.5
2017-09-14T12:10:57.489Z,989.5
2017-09-14T12:11:59.920Z,989.3
2017-09-14T12:13:02.333Z,989.3
2017-09-14T12:14:04.743Z,989.4
2017-09-14T12:15:07.153Z,989.4
2017-09-14T12:16:09.597Z,989.4
2017-09-14T12:17:12.050Z,989.4
2017-09-14T12:18:14.442Z,989.3
2017-09-14T12:19:16.859Z,989.4
2017-09-14T12:20:19.280Z,989.4
2017-09-14T12:21:21.770Z,989.4
2017-09-14T12:22:24.190Z,989.4
2017-09-14T12:23:26.943Z,989.4
2017-09-14T12:24:29.356Z,989.4
2017-09-14T12:25:31.773Z,989.4
2017-09-14T12:26:34.189Z,989.4
2017-09-14T12:27:36.595Z,989.4
2017-09-14T12:28:39.002Z,989.5
2017-09-14T12:29:41.742Z,989.4
2017-09-14T12:30:44.164Z,989.4
2017-09-14T12:31:46.566Z,989.4
2017-09-14T12:32:48.979Z,989.4
2017-09-14T12:33:51.396Z,989.4
2017-09-14T12:34:53.799Z,989.4
2017-09-14T12:35:56.208Z,989.5
2017-09-14T12:36:58.636Z,989.4
2017-09-14T12:38:01.031Z,989.5
2017-09-14T12:39:03.933Z,989.4
2017-09-14T12:40:06.370Z,989.4
2017-09-14T12:41:08.803Z,989.5
2017-09-14T12:42:11.211Z,989.5
2017-09-14T12:43:13.619Z,989.6
2017-09-14T12:44:16.024Z,989.6
2017-09-14T12:45:18.453Z,989.5
2017-09-14T12:46:20.854Z,989.5
2017-09-14T12:47:23.273Z,989.5
2017-09-14T12:48:26.015Z,989.6
2017-09-14T12:49:28.415Z,989.6
2017-09-14T12:50:30.823Z,989.5
2017-09-14T12:51:33.228Z,989.5
2017-09-14T12:52:35.637Z,989.6
2017-09-14T12:53:38.041Z,989.5
2017-09-14T12:54:40.449Z,989.4
2017-09-14T12:55:42.864Z,989.6
2017-09-14T12:56:45.268Z,989.5
2017-09-14T12:57:48.019Z,989.5
2017-09-14T12:58:50.420Z,989.5
2017-09-14T12:59:52.830Z,989.5
2017-09-14T13:00:55.236Z,989.5
2017-09-14T13:01:57.647Z,989.5
2017-09-14T13:03:00.050Z,989.5
2017-09-14T13:04:02.463Z,989.6
2017-09-14T13:05:04.871Z,989.6
2017-09-14T13:06:07.281Z,989.5
2017-09-14T13:07:10.043Z,989.6
2017-09-14T13:08:12.451Z,989.6
2017-09-14T13:09:15.211Z,989.6
2017-09-14T13:10:17.630Z,989.7
2017-09-14T13:11:20.027Z,989.5
2017-09-14T13:12:22.427Z,989.5
2017-09-14T13:13:24.852Z,989.5
2017-09-14T13:14:27.258Z,989.6
2017-09-14T13:15:29.673Z,989.5
2017-09-14T13:16:32.418Z,989.5
2017-09-14T13:17:34.829Z,989.6
2017-09-14T13:18:37.235Z,989.6
2017-09-14T13:19:39.646Z,989.5
2017-09-14T13:20:42.382Z,989.6
2017-09-14T13:21:44.795Z,989.6
2017-09-14T13:22:47.212Z,989.6
2017-09-14T13:23:49.623Z,989.6
2017-09-14T13:24:52.031Z,989.7
2017-09-14T13:25:54.468Z,989.8
2017-09-14T13:26:57.559Z,989.8
2017-09-14T13:27:59.969Z,989.9
2017-09-14T13:29:02.379Z,989.9
2017-09-14T13:30:04.799Z,989.8
2017-09-14T13:31:07.543Z,989.9
2017-09-14T13:32:09.950Z,989.9
2017-09-14T13:33:12.350Z,989.9
2017-09-14T13:34:14.748Z,990
2017-09-14T13:35:17.165Z,989.9
2017-09-14T13:36:19.562Z,989.9